Terminal Aerodrome Forecast
Issued by NWS

Home | Current Version | Previous Version | Text Only | Print | Product List | Glossary On
Versions: 1 2 3 4 5 6 7 8 9 10 11 12 13 14 15 16 17 18 19 20 21 22 23 24 25 26 27 28 29 30 31 32 33 34 35 36
000
FTUS43 KDVN 292325
TAFBRL
TAF
KBRL 292325Z 3000/3024 06008KT P6SM OVC025
     FM300300 07011KT P6SM BKN035
     FM300800 07013G20KT P6SM VCSH OVC025
     FM301000 08018G25KT 3SM RA BR SCT008 OVC015
     FM301800 07014G21KT 5SM BR VCSH OVC008=

USA.gov is the U.S. government's official web portal to all federal, state and local government web resources and services.